Boyntonville, New York
Current Conditions -  °F | °C
As of 3:54 AM on Monday 22 Dec 2014 (Local Time) from KDDH Reporting Station
Haze Haze  
Wind Chill: 28°   Ceiling: 3800
Heat Index: 28°   Visibility: 4mi
Dew Point: 26°   Wind: 0mph
Humidity: 92%   Direction: NA
Pressure: 30.32"   Gusts: NA
Location:  42.8782°N, 73.3625°W
Report Text: KDDH 220854Z AUTO 00000KT 4SM BR OVC038 M02/M03 A3032 RMK AO2 SLP277 T10221033 58002
Loading
Personal Weather Stations






























Interactive Weather Map New forecast layout! Learn more

10-Day Weather Forecast

Advertisements
Track Severe Weather on mobile